sensor_id;sensor_type;location;lat;lon;timestamp;pressure;altitude;pressure_sealevel;temperature;humidity
63115;BME280;49208;50.874;6.466;2023-11-21T07:00:50;100252.44;;;7.02;100.00
63115;BME280;49208;50.874;6.466;2023-11-21T07:03:15;100249.81;;;7.01;100.00
63115;BME280;49208;50.874;6.466;2023-11-21T07:05:41;100253.38;;;7.00;100.00
63115;BME280;49208;50.874;6.466;2023-11-21T07:08:06;100261.34;;;6.98;100.00
63115;BME280;49208;50.874;6.466;2023-11-21T07:10:32;100266.66;;;6.98;100.00
63115;BME280;49208;50.874;6.466;2023-11-21T07:12:58;100271.97;;;6.97;100.00
63115;BME280;49208;50.874;6.466;2023-11-21T07:15:23;100270.22;;;6.97;100.00
63115;BME280;49208;50.874;6.466;2023-11-21T07:17:51;100276.38;;;6.98;100.00
63115;BME280;49208;50.874;6.466;2023-11-21T07:20:16;100277.22;;;6.98;100.00
63115;BME280;49208;50.874;6.466;2023-11-21T07:22:42;100284.22;;;7.01;100.00
63115;BME280;49208;50.874;6.466;2023-11-21T07:25:08;100285.97;;;7.02;100.00
63115;BME280;49208;50.874;6.466;2023-11-21T07:27:34;100288.56;;;7.03;100.00
63115;BME280;49208;50.874;6.466;2023-11-21T07:30:01;100292.03;;;7.05;100.00
63115;BME280;49208;50.874;6.466;2023-11-21T07:32:30;100299.94;;;7.07;100.00
63115;BME280;49208;50.874;6.466;2023-11-21T07:34:55;100292.88;;;7.07;100.00
63115;BME280;49208;50.874;6.466;2023-11-21T07:37:22;100299.91;;;7.10;100.00
63115;BME280;49208;50.874;6.466;2023-11-21T07:39:48;100301.63;;;7.11;100.00
63115;BME280;49208;50.874;6.466;2023-11-21T07:42:14;100302.47;;;7.13;100.00
63115;BME280;49208;50.874;6.466;2023-11-21T07:44:40;100307.72;;;7.15;100.00
63115;BME280;49208;50.874;6.466;2023-11-21T07:47:05;100310.28;;;7.18;100.00
63115;BME280;49208;50.874;6.466;2023-11-21T07:49:31;100313.81;;;7.18;100.00
63115;BME280;49208;50.874;6.466;2023-11-21T07:51:56;100313.75;;;7.20;100.00
63115;BME280;49208;50.874;6.466;2023-11-21T07:54:21;100318.13;;;7.22;100.00
63115;BME280;49208;50.874;6.466;2023-11-21T07:56:47;100319.88;;;7.23;100.00
63115;BME280;49208;50.874;6.466;2023-11-21T07:59:12;100330.41;;;7.26;100.00
63115;BME280;49208;50.874;6.466;2023-11-21T08:01:39;100332.97;;;7.28;100.00
63115;BME280;49208;50.874;6.466;2023-11-21T08:04:05;100337.38;;;7.29;100.00
63115;BME280;49208;50.874;6.466;2023-11-21T08:06:32;100342.66;;;7.31;100.00
63115;BME280;49208;50.874;6.466;2023-11-21T08:08:58;100349.69;;;7.32;100.00
63115;BME280;49208;50.874;6.466;2023-11-21T08:11:23;100358.44;;;7.34;100.00
63115;BME280;49208;50.874;6.466;2023-11-21T08:13:48;100353.13;;;7.35;100.00
63115;BME280;49208;50.874;6.466;2023-11-21T08:16:14;100364.56;;;7.37;100.00
63115;BME280;49208;50.874;6.466;2023-11-21T08:18:40;100364.53;;;7.39;100.00
63115;BME280;49208;50.874;6.466;2023-11-21T08:21:06;100362.75;;;7.39;100.00
63115;BME280;49208;50.874;6.466;2023-11-21T08:23:33;100368.88;;;7.41;100.00
63115;BME280;49208;50.874;6.466;2023-11-21T08:25:59;100366.19;;;7.43;100.00
63115;BME280;49208;50.874;6.466;2023-11-21T08:28:24;100375.84;;;7.45;100.00
63115;BME280;49208;50.874;6.466;2023-11-21T08:30:51;100382.84;;;7.48;100.00
63115;BME280;49208;50.874;6.466;2023-11-21T08:33:17;100381.03;;;7.48;100.00
63115;BME280;49208;50.874;6.466;2023-11-21T08:35:43;100382.75;;;7.51;100.00
63115;BME280;49208;50.874;6.466;2023-11-21T08:38:08;100388.88;;;7.53;100.00
63115;BME280;49208;50.874;6.466;2023-11-21T08:40:35;100384.47;;;7.54;100.00
63115;BME280;49208;50.874;6.466;2023-11-21T08:43:00;100381.81;;;7.54;100.00
63115;BME280;49208;50.874;6.466;2023-11-21T08:45:26;100388.84;;;7.55;100.00
63115;BME280;49208;50.874;6.466;2023-11-21T08:47:52;100396.72;;;7.58;100.00
63115;BME280;49208;50.874;6.466;2023-11-21T08:50:17;100394.00;;;7.61;100.00
63115;BME280;49208;50.874;6.466;2023-11-21T08:52:44;100401.91;;;7.62;100.00
63115;BME280;49208;50.874;6.466;2023-11-21T08:55:11;100408.91;;;7.65;100.00
63115;BME280;49208;50.874;6.466;2023-11-21T08:57:38;100407.06;;;7.68;100.00
63115;BME280;49208;50.874;6.466;2023-11-21T09:00:04;100414.91;;;7.72;100.00
63115;BME280;49208;50.874;6.466;2023-11-21T09:02:36;100405.13;;;7.75;100.00
63115;BME280;49208;50.874;6.466;2023-11-21T09:05:05;100405.94;;;7.79;100.00
63115;BME280;49208;50.874;6.466;2023-11-21T09:07:31;100410.22;;;7.84;100.00
63115;BME280;49208;50.874;6.466;2023-11-21T09:09:57;100403.91;;;7.88;100.00
63115;BME280;49208;50.874;6.466;2023-11-21T09:12:22;100410.84;;;7.94;100.00
63115;BME280;49208;50.874;6.466;2023-11-21T09:14:50;100416.00;;;7.99;100.00
63115;BME280;49208;50.874;6.466;2023-11-21T09:17:16;100422.94;;;8.04;100.00
63115;BME280;49208;50.874;6.466;2023-11-21T09:19:42;100421.06;;;8.09;100.00
63115;BME280;49208;50.874;6.466;2023-11-21T09:22:10;100424.47;;;8.13;100.00
63115;BME280;49208;50.874;6.466;2023-11-21T09:24:36;100430.59;;;8.17;100.00
63115;BME280;49208;50.874;6.466;2023-11-21T09:27:01;100436.72;;;8.19;100.00
63115;BME280;49208;50.874;6.466;2023-11-21T09:29:27;100441.16;;;8.18;100.00
63115;BME280;49208;50.874;6.466;2023-11-21T09:31:54;100435.00;;;8.18;100.00
63115;BME280;49208;50.874;6.466;2023-11-21T09:34:21;100444.72;;;8.17;100.00
63115;BME280;49208;50.874;6.466;2023-11-21T09:36:47;100442.13;;;8.16;100.00
63115;BME280;49208;50.874;6.466;2023-11-21T09:39:13;100450.13;;;8.13;100.00
63115;BME280;49208;50.874;6.466;2023-11-21T09:41:46;100451.06;;;8.12;100.00
63115;BME280;49208;50.874;6.466;2023-11-21T09:44:32;100458.94;;;8.13;100.00
63115;BME280;49208;50.874;6.466;2023-11-21T09:47:01;100458.88;;;8.16;100.00
63115;BME280;49208;50.874;6.466;2023-11-21T09:49:27;100456.16;;;8.19;100.00
63115;BME280;49208;50.874;6.466;2023-11-21T09:51:55;100456.94;;;8.23;100.00
63115;BME280;49208;50.874;6.466;2023-11-21T09:54:23;100455.09;;;8.26;100.00
63115;BME280;49208;50.874;6.466;2023-11-21T09:56:49;100454.94;;;8.33;100.00
63115;BME280;49208;50.874;6.466;2023-11-21T09:59:15;100456.50;;;8.40;100.00
63115;BME280;49208;50.874;6.466;2023-11-21T10:01:42;100462.50;;;8.48;100.00
63115;BME280;49208;50.874;6.466;2023-11-21T10:04:10;100455.16;;;8.59;100.00
63115;BME280;49208;50.874;6.466;2023-11-21T10:06:39;100457.50;;;8.70;100.00
63115;BME280;49208;50.874;6.466;2023-11-21T10:09:07;100460.75;;;8.80;100.00
63115;BME280;49208;50.874;6.466;2023-11-21T10:11:40;100464.94;;;8.88;100.00
63115;BME280;49208;50.874;6.466;2023-11-21T10:14:11;100462.88;;;8.98;100.00
63115;BME280;49208;50.874;6.466;2023-11-21T10:16:41;100469.66;;;9.08;100.00
63115;BME280;49208;50.874;6.466;2023-11-21T10:19:10;100456.97;;;9.20;100.00
63115;BME280;49208;50.874;6.466;2023-11-21T10:21:36;100460.13;;;9.33;100.00
63115;BME280;49208;50.874;6.466;2023-11-21T10:24:03;100457.03;;;9.46;100.00
63115;BME280;49208;50.874;6.466;2023-11-21T10:26:28;100464.56;;;9.60;100.00
63115;BME280;49208;50.874;6.466;2023-11-21T10:29:00;100465.13;;;9.71;100.00
63115;BME280;49208;50.874;6.466;2023-11-21T10:31:32;100462.88;;;9.86;100.00
63115;BME280;49208;50.874;6.466;2023-11-21T10:34:19;100465.03;;;10.01;100.00
63115;BME280;49208;50.874;6.466;2023-11-21T10:36:45;100469.00;;;10.15;100.00
63115;BME280;49208;50.874;6.466;2023-11-21T10:39:16;100469.59;;;10.24;100.00
63115;BME280;49208;50.874;6.466;2023-11-21T10:41:48;100473.19;;;10.23;100.00
63115;BME280;49208;50.874;6.466;2023-11-21T10:44:18;100474.94;;;10.23;100.00
63115;BME280;49208;50.874;6.466;2023-11-21T10:46:48;100468.81;;;10.21;100.00
63115;BME280;49208;50.874;6.466;2023-11-21T10:49:17;100466.97;;;10.23;100.00
63115;BME280;49208;50.874;6.466;2023-11-21T10:51:45;100469.59;;;10.24;100.00
63115;BME280;49208;50.874;6.466;2023-11-21T10:54:17;100470.34;;;10.28;100.00
63115;BME280;49208;50.874;6.466;2023-11-21T10:56:42;100464.91;;;10.32;100.00
63115;BME280;49208;50.874;6.466;2023-11-21T10:59:12;100465.91;;;10.28;100.00
63115;BME280;49208;50.874;6.466;2023-11-21T11:01:42;100476.66;;;10.25;100.00
63115;BME280;49208;50.874;6.466;2023-11-21T11:04:09;100466.97;;;10.23;100.00
63115;BME280;49208;50.874;6.466;2023-11-21T11:06:54;100463.59;;;10.18;100.00
63115;BME280;49208;50.874;6.466;2023-11-21T11:09:21;100473.44;;;10.16;100.00
63115;BME280;49208;50.874;6.466;2023-11-21T11:11:47;100472.59;;;10.14;100.00
63115;BME280;49208;50.874;6.466;2023-11-21T11:14:14;100472.78;;;10.09;100.00
63115;BME280;49208;50.874;6.466;2023-11-21T11:16:40;100480.84;;;10.06;100.00
63115;BME280;49208;50.874;6.466;2023-11-21T11:19:07;100482.78;;;10.01;100.00
63115;BME280;49208;50.874;6.466;2023-11-21T11:30:11;100489.91;;;10.00;100.00
63115;BME280;49208;50.874;6.466;2023-11-21T11:33:10;100487.25;;;10.00;100.00
63115;BME280;49208;50.874;6.466;2023-11-21T11:38:21;100497.56;;;10.09;100.00
63115;BME280;49208;50.874;6.466;2023-11-21T11:40:46;100502.66;;;10.17;100.00
63115;BME280;49208;50.874;6.466;2023-11-21T11:43:12;100498.97;;;10.21;100.00
63115;BME280;49208;50.874;6.466;2023-11-21T11:45:38;100502.38;;;10.25;100.00
63115;BME280;49208;50.874;6.466;2023-11-21T11:48:07;100511.97;;;10.30;100.00
63115;BME280;49208;50.874;6.466;2023-11-21T11:50:33;100502.97;;;10.35;100.00
63115;BME280;49208;50.874;6.466;2023-11-21T11:53:13;100501.03;;;10.40;100.00
63115;BME280;49208;50.874;6.466;2023-11-21T11:55:38;100500.00;;;10.44;100.00
63115;BME280;49208;50.874;6.466;2023-11-21T11:58:06;100498.16;;;10.46;100.00
63115;BME280;49208;50.874;6.466;2023-11-21T12:03:00;100505.91;;;10.52;100.00
63115;BME280;49208;50.874;6.466;2023-11-21T12:05:29;100511.22;;;10.52;100.00
63115;BME280;49208;50.874;6.466;2023-11-21T12:08:01;100514.72;;;10.54;100.00
63115;BME280;49208;50.874;6.466;2023-11-21T12:10:29;100513.81;;;10.55;100.00
63115;BME280;49208;50.874;6.466;2023-11-21T12:12:57;100511.16;;;10.55;100.00
63115;BME280;49208;50.874;6.466;2023-11-21T12:15:23;100518.19;;;10.56;100.00
63115;BME280;49208;50.874;6.466;2023-11-21T12:17:50;100515.53;;;10.56;100.00
63115;BME280;49208;50.874;6.466;2023-11-21T12:20:19;100514.72;;;10.54;100.00
63115;BME280;49208;50.874;6.466;2023-11-21T12:22:49;100523.59;;;10.55;100.00
63115;BME280;49208;50.874;6.466;2023-11-21T12:25:27;100515.59;;;10.55;100.00
63115;BME280;49208;50.874;6.466;2023-11-21T12:28:01;100521.78;;;10.55;100.00
63115;BME280;49208;50.874;6.466;2023-11-21T12:30:29;100518.16;;;10.58;100.00
63115;BME280;49208;50.874;6.466;2023-11-21T12:32:59;100517.13;;;10.62;100.00
63115;BME280;49208;50.874;6.466;2023-11-21T12:35:25;100514.16;;;10.71;100.00
63115;BME280;49208;50.874;6.466;2023-11-21T12:37:52;100518.44;;;10.75;100.00
63115;BME280;49208;50.874;6.466;2023-11-21T12:40:18;100524.41;;;10.82;100.00
63115;BME280;49208;50.874;6.466;2023-11-21T12:42:45;100528.94;;;10.80;100.00
63115;BME280;49208;50.874;6.466;2023-11-21T12:48:09;100538.97;;;10.71;100.00
63115;BME280;49208;50.874;6.466;2023-11-21T12:50:37;100548.78;;;10.71;100.00
63115;BME280;49208;50.874;6.466;2023-11-21T12:53:07;100548.66;;;10.74;100.00
63115;BME280;49208;50.874;6.466;2023-11-21T12:55:34;100551.25;;;10.76;100.00
63115;BME280;49208;50.874;6.466;2023-11-21T12:58:04;100549.25;;;10.82;100.00
63115;BME280;49208;50.874;6.466;2023-11-21T13:00:40;100561.28;;;10.94;100.00
63115;BME280;49208;50.874;6.466;2023-11-21T13:03:09;100560.25;;;10.98;100.00
63115;BME280;49208;50.874;6.466;2023-11-21T13:05:38;100563.72;;;11.00;100.00
63115;BME280;49208;50.874;6.466;2023-11-21T13:08:06;100569.31;;;10.92;100.00
63115;BME280;49208;50.874;6.466;2023-11-21T13:10:38;100569.66;;;10.83;100.00
63115;BME280;49208;50.874;6.466;2023-11-21T13:13:06;100567.41;;;10.71;100.00
63115;BME280;49208;50.874;6.466;2023-11-21T13:15:34;100565.91;;;10.62;100.00
63115;BME280;49208;50.874;6.466;2023-11-21T13:18:02;100574.97;;;10.57;100.00
63115;BME280;49208;50.874;6.466;2023-11-21T13:20:27;100567.38;;;10.46;100.00
63115;BME280;49208;50.874;6.466;2023-11-21T13:22:56;100569.50;;;10.35;100.00
63115;BME280;49208;50.874;6.466;2023-11-21T13:25:29;100570.47;;;10.32;100.00
63115;BME280;49208;50.874;6.466;2023-11-21T13:27:55;100576.78;;;10.28;100.00
63115;BME280;49208;50.874;6.466;2023-11-21T13:30:21;100583.00;;;10.27;100.00
63115;BME280;49208;50.874;6.466;2023-11-21T13:32:51;100587.56;;;10.23;100.00
63115;BME280;49208;50.874;6.466;2023-11-21T13:35:19;100593.19;;;10.12;100.00
63115;BME280;49208;50.874;6.466;2023-11-21T13:37:56;100589.84;;;10.07;100.00
63115;BME280;49208;50.874;6.466;2023-11-21T13:40:24;100603.34;;;10.00;100.00
63115;BME280;49208;50.874;6.466;2023-11-21T13:42:54;100603.66;;;9.90;100.00
63115;BME280;49208;50.874;6.466;2023-11-21T13:45:23;100602.03;;;9.85;100.00
63115;BME280;49208;50.874;6.466;2023-11-21T13:47:51;100601.34;;;9.78;100.00
63115;BME280;49208;50.874;6.466;2023-11-21T13:50:18;100607.75;;;9.71;100.00
63115;BME280;49208;50.874;6.466;2023-11-21T13:52:49;100606.09;;;9.67;100.00
63115;BME280;49208;50.874;6.466;2023-11-21T13:55:16;100600.84;;;9.65;100.00
63115;BME280;49208;50.874;6.466;2023-11-21T13:57:42;100603.50;;;9.65;100.00
63115;BME280;49208;50.874;6.466;2023-11-21T14:00:17;100610.66;;;9.63;100.00
63115;BME280;49208;50.874;6.466;2023-11-21T14:03:09;100616.97;;;9.59;100.00
63115;BME280;49208;50.874;6.466;2023-11-21T14:05:43;100617.13;;;9.55;100.00
63115;BME280;49208;50.874;6.466;2023-11-21T14:08:10;100615.31;;;9.55;100.00
63115;BME280;49208;50.874;6.466;2023-11-21T14:10:37;100611.00;;;9.51;100.00
63115;BME280;49208;50.874;6.466;2023-11-21T14:13:08;100612.00;;;9.47;100.00
63115;BME280;49208;50.874;6.466;2023-11-21T14:15:36;100613.75;;;9.48;100.00
63115;BME280;49208;50.874;6.466;2023-11-21T14:18:07;100613.81;;;9.46;100.00
63115;BME280;49208;50.874;6.466;2023-11-21T14:20:36;100617.31;;;9.47;100.00
63115;BME280;49208;50.874;6.466;2023-11-21T14:23:03;100616.47;;;9.46;100.00
63115;BME280;49208;50.874;6.466;2023-11-21T14:25:31;100627.09;;;9.46;100.00
63115;BME280;49208;50.874;6.466;2023-11-21T14:27:57;100623.59;;;9.44;100.00
63115;BME280;49208;50.874;6.466;2023-11-21T14:30:23;100633.41;;;9.42;100.00
63115;BME280;49208;50.874;6.466;2023-11-21T14:32:48;100633.44;;;9.41;100.00
63115;BME280;49208;50.874;6.466;2023-11-21T14:35:15;100630.84;;;9.38;100.00
63115;BME280;49208;50.874;6.466;2023-11-21T14:37:41;100630.94;;;9.35;100.00
63115;BME280;49208;50.874;6.466;2023-11-21T14:40:07;100628.38;;;9.31;100.00
63115;BME280;49208;50.874;6.466;2023-11-21T14:42:34;100640.81;;;9.29;100.00
63115;BME280;49208;50.874;6.466;2023-11-21T14:45:01;100638.22;;;9.28;100.00
63115;BME280;49208;50.874;6.466;2023-11-21T14:47:31;100648.03;;;9.26;100.00
63115;BME280;49208;50.874;6.466;2023-11-21T14:49:57;100644.56;;;9.22;100.00
63115;BME280;49208;50.874;6.466;2023-11-21T14:52:25;100641.06;;;9.20;100.00
63115;BME280;49208;50.874;6.466;2023-11-21T14:55:00;100644.63;;;9.19;100.00
63115;BME280;49208;50.874;6.466;2023-11-21T14:57:44;100654.47;;;9.17;100.00
63115;BME280;49208;50.874;6.466;2023-11-21T15:00:18;100658.94;;;9.15;100.00
63115;BME280;49208;50.874;6.466;2023-11-21T15:02:59;100656.34;;;9.12;100.00
63115;BME280;49208;50.874;6.466;2023-11-21T15:05:25;100658.13;;;9.12;100.00
63115;BME280;49208;50.874;6.466;2023-11-21T15:07:53;100661.69;;;9.10;100.00
63115;BME280;49208;50.874;6.466;2023-11-21T15:10:22;100668.78;;;9.10;100.00
63115;BME280;49208;50.874;6.466;2023-11-21T15:12:54;100676.75;;;9.10;100.00
63115;BME280;49208;50.874;6.466;2023-11-21T15:15:20;100676.72;;;9.12;100.00
63115;BME280;49208;50.874;6.466;2023-11-21T15:17:46;100688.31;;;9.09;100.00
63115;BME280;49208;50.874;6.466;2023-11-21T15:20:13;100690.91;;;9.10;100.00
63115;BME280;49208;50.874;6.466;2023-11-21T15:22:46;100690.97;;;9.09;100.00
63115;BME280;49208;50.874;6.466;2023-11-21T15:25:11;100698.09;;;9.07;100.00
63115;BME280;49208;50.874;6.466;2023-11-21T15:27:38;100699.13;;;9.00;100.00
63115;BME280;49208;50.874;6.466;2023-11-21T15:30:04;100706.28;;;8.98;100.00
63115;BME280;49208;50.874;6.466;2023-11-21T15:32:29;100702.81;;;8.94;100.00
63115;BME280;49208;50.874;6.466;2023-11-21T15:34:54;100711.72;;;8.92;100.00
63115;BME280;49208;50.874;6.466;2023-11-21T15:37:20;100710.03;;;8.89;100.00
63115;BME280;49208;50.874;6.466;2023-11-21T15:39:45;100713.63;;;8.86;100.00
63115;BME280;49208;50.874;6.466;2023-11-21T15:42:12;100706.59;;;8.84;100.00
63115;BME280;49208;50.874;6.466;2023-11-21T15:44:37;100715.50;;;8.83;100.00
63115;BME280;49208;50.874;6.466;2023-11-21T15:47:04;100719.97;;;8.81;100.00
63115;BME280;49208;50.874;6.466;2023-11-21T15:49:31;100716.44;;;8.80;100.00
63115;BME280;49208;50.874;6.466;2023-11-21T15:51:59;100727.06;;;8.80;100.00
63115;BME280;49208;50.874;6.466;2023-11-21T15:54:26;100723.50;;;8.80;100.00
63115;BME280;49208;50.874;6.466;2023-11-21T15:56:53;100723.50;;;8.80;100.00
63115;BME280;49208;50.874;6.466;2023-11-21T15:59:22;100734.19;;;8.78;100.00
63115;BME280;49208;50.874;6.466;2023-11-21T16:01:49;100728.03;;;8.76;100.00
63115;BME280;49208;50.874;6.466;2023-11-21T16:04:15;100735.91;;;8.79;100.00
63115;BME280;49208;50.874;6.466;2023-11-21T16:06:43;100739.41;;;8.81;100.00
63115;BME280;49208;50.874;6.466;2023-11-21T16:09:11;100737.63;;;8.82;100.00
63115;BME280;49208;50.874;6.466;2023-11-21T16:11:57;100744.69;;;8.83;100.00
63115;BME280;49208;50.874;6.466;2023-11-21T16:14:30;100749.22;;;8.78;100.00
63115;BME280;49208;50.874;6.466;2023-11-21T16:17:10;100758.25;;;8.70;100.00
63115;BME280;49208;50.874;6.466;2023-11-21T16:19:37;100762.81;;;8.64;100.00
63115;BME280;49208;50.874;6.466;2023-11-21T16:22:03;100756.69;;;8.60;100.00
63115;BME280;49208;50.874;6.466;2023-11-21T16:24:29;100765.59;;;8.58;100.00
63115;BME280;49208;50.874;6.466;2023-11-21T16:26:55;100774.53;;;8.54;100.00
63115;BME280;49208;50.874;6.466;2023-11-21T16:29:21;100778.16;;;8.51;100.00
63115;BME280;49208;50.874;6.466;2023-11-21T16:31:46;100779.03;;;8.50;100.00
63115;BME280;49208;50.874;6.466;2023-11-21T16:34:16;100783.47;;;8.49;100.00
63115;BME280;49208;50.874;6.466;2023-11-21T16:36:42;100790.59;;;8.47;100.00
63115;BME280;49208;50.874;6.466;2023-11-21T16:39:11;100789.78;;;8.42;100.00
63115;BME280;49208;50.874;6.466;2023-11-21T16:41:39;100786.28;;;8.40;100.00
63115;BME280;49208;50.874;6.466;2023-11-21T16:44:05;100790.75;;;8.38;100.00
63115;BME280;49208;50.874;6.466;2023-11-21T16:46:31;100799.63;;;8.36;100.00
63115;BME280;49208;50.874;6.466;2023-11-21T16:48:57;100811.19;;;8.33;100.00
63115;BME280;49208;50.874;6.466;2023-11-21T16:51:22;100812.91;;;8.34;100.00
63115;BME280;49208;50.874;6.466;2023-11-21T16:53:47;100814.72;;;8.32;100.00
63115;BME280;49208;50.874;6.466;2023-11-21T16:56:13;100826.25;;;8.33;100.00
63115;BME280;49208;50.874;6.466;2023-11-21T16:58:39;100828.06;;;8.30;100.00
63115;BME280;49208;50.874;6.466;2023-11-21T17:01:04;100828.00;;;8.32;100.00
63115;BME280;49208;50.874;6.466;2023-11-21T17:03:32;100841.22;;;8.34;100.00
63115;BME280;49208;50.874;6.466;2023-11-21T17:05:57;100840.38;;;8.32;100.00
63115;BME280;49208;50.874;6.466;2023-11-21T17:08:23;100854.50;;;8.32;100.00
63115;BME280;49208;50.874;6.466;2023-11-21T17:10:50;100853.72;;;8.28;100.00
63115;BME280;49208;50.874;6.466;2023-11-21T17:13:15;100856.38;;;8.28;100.00
63115;BME280;49208;50.874;6.466;2023-11-21T17:15:44;100857.25;;;8.29;100.00
63115;BME280;49208;50.874;6.466;2023-11-21T17:18:11;100859.91;;;8.27;100.00
63115;BME280;49208;50.874;6.466;2023-11-21T17:20:36;100869.66;;;8.27;100.00
63115;BME280;49208;50.874;6.466;2023-11-21T17:23:02;100876.78;;;8.25;100.00
63115;BME280;49208;50.874;6.466;2023-11-21T17:25:29;100879.44;;;8.25;100.00
63115;BME280;49208;50.874;6.466;2023-11-21T17:27:56;100881.25;;;8.21;100.00
63115;BME280;49208;50.874;6.466;2023-11-21T17:30:21;100886.50;;;8.26;100.00
63115;BME280;49208;50.874;6.466;2023-11-21T17:32:47;100890.94;;;8.24;100.00
63115;BME280;49208;50.874;6.466;2023-11-21T17:35:13;100896.28;;;8.21;100.00
63115;BME280;49208;50.874;6.466;2023-11-21T17:37:39;100906.03;;;8.20;100.00
63115;BME280;49208;50.874;6.466;2023-11-21T17:40:05;100912.28;;;8.18;100.00
63115;BME280;49208;50.874;6.466;2023-11-21T17:42:33;100917.63;;;8.15;100.00
63115;BME280;49208;50.874;6.466;2023-11-21T17:44:58;100919.44;;;8.13;100.00
63115;BME280;49208;50.874;6.466;2023-11-21T17:47:24;100923.00;;;8.12;100.00
63115;BME280;49208;50.874;6.466;2023-11-21T17:49:51;100931.84;;;8.09;100.00
63115;BME280;49208;50.874;6.466;2023-11-21T17:52:16;100938.06;;;8.08;100.00
63115;BME280;49208;50.874;6.466;2023-11-21T17:54:43;100933.66;;;8.07;100.00
63115;BME280;49208;50.874;6.466;2023-11-21T17:57:09;100940.75;;;8.05;100.00
63115;BME280;49208;50.874;6.466;2023-11-21T17:59:37;100935.50;;;8.03;100.00
63115;BME280;49208;50.874;6.466;2023-11-21T18:02:04;100946.16;;;8.00;100.00
63115;BME280;49208;50.874;6.466;2023-11-21T18:04:29;100945.28;;;7.98;100.00
63115;BME280;49208;50.874;6.466;2023-11-21T18:06:55;100949.75;;;7.96;100.00
63115;BME280;49208;50.874;6.466;2023-11-21T18:09:23;100953.34;;;7.92;100.00
63115;BME280;49208;50.874;6.466;2023-11-21T18:11:49;100956.91;;;7.91;100.00
63115;BME280;49208;50.874;6.466;2023-11-21T18:14:14;100962.25;;;7.89;100.00
63115;BME280;49208;50.874;6.466;2023-11-21T18:16:40;100966.59;;;7.94;100.00
63115;BME280;49208;50.874;6.466;2023-11-21T18:19:07;100968.41;;;7.88;100.00
63115;BME280;49208;50.874;6.466;2023-11-21T18:21:34;100980.00;;;7.84;100.00
63115;BME280;49208;50.874;6.466;2023-11-21T18:24:02;100982.66;;;7.83;100.00
63115;BME280;49208;50.874;6.466;2023-11-21T18:26:28;100992.50;;;7.76;100.00
63115;BME280;49208;50.874;6.466;2023-11-21T18:28:54;101001.34;;;7.74;100.00
63115;BME280;49208;50.874;6.466;2023-11-21T18:31:19;101008.44;;;7.72;100.00
63115;BME280;49208;50.874;6.466;2023-11-21T18:33:45;101011.22;;;7.64;100.00
63115;BME280;49208;50.874;6.466;2023-11-21T18:36:11;101005.94;;;7.61;100.00
63115;BME280;49208;50.874;6.466;2023-11-21T18:38:38;101015.69;;;7.59;100.00
63115;BME280;49208;50.874;6.466;2023-11-21T18:41:03;101022.81;;;7.55;100.00
63115;BME280;49208;50.874;6.466;2023-11-21T18:43:29;101033.41;;;7.55;100.00
63115;BME280;49208;50.874;6.466;2023-11-21T18:45:54;101039.63;;;7.51;100.00
63115;BME280;49208;50.874;6.466;2023-11-21T18:48:20;101039.69;;;7.46;100.00
63115;BME280;49208;50.874;6.466;2023-11-21T18:50:45;101053.00;;;7.42;100.00
63115;BME280;49208;50.874;6.466;2023-11-21T18:53:12;101049.59;;;7.34;100.00
63115;BME280;49208;50.874;6.466;2023-11-21T18:55:37;101053.19;;;7.28;100.00
63115;BME280;49208;50.874;6.466;2023-11-21T18:58:03;101048.81;;;7.25;100.00
63115;BME280;49208;50.874;6.466;2023-11-21T19:00:29;101058.59;;;7.20;100.00
63115;BME280;49208;50.874;6.466;2023-11-21T19:02:54;101059.53;;;7.15;100.00
63115;BME280;49208;50.874;6.466;2023-11-21T19:05:20;101064.88;;;7.10;100.00
63115;BME280;49208;50.874;6.466;2023-11-21T19:07:45;101072.91;;;7.02;100.00
63115;BME280;49208;50.874;6.466;2023-11-21T19:10:10;101081.75;;;6.98;100.00
63115;BME280;49208;50.874;6.466;2023-11-21T19:12:36;101093.28;;;6.94;100.00
63115;BME280;49208;50.874;6.466;2023-11-21T19:15:05;101088.97;;;6.84;100.00
63115;BME280;49208;50.874;6.466;2023-11-21T19:17:34;101102.25;;;6.78;100.00
63115;BME280;49208;50.874;6.466;2023-11-21T19:19:59;101103.16;;;6.77;100.00
63115;BME280;49208;50.874;6.466;2023-11-21T19:22:25;101104.94;;;6.73;100.00
63115;BME280;49208;50.874;6.466;2023-11-21T19:24:52;101108.53;;;6.67;100.00
63115;BME280;49208;50.874;6.466;2023-11-21T19:27:17;101103.31;;;6.58;100.00
63115;BME280;49208;50.874;6.466;2023-11-21T19:29:43;101109.56;;;6.50;100.00
63115;BME280;49208;50.874;6.466;2023-11-21T19:32:08;101118.38;;;6.52;100.00
63115;BME280;49208;50.874;6.466;2023-11-21T19:34:34;101114.00;;;6.46;100.00
63115;BME280;49208;50.874;6.466;2023-11-21T19:37:00;101117.50;;;6.46;100.00
63115;BME280;49208;50.874;6.466;2023-11-21T19:39:26;101124.59;;;6.44;100.00
63115;BME280;49208;50.874;6.466;2023-11-21T19:41:51;101122.84;;;6.39;100.00
63115;BME280;49208;50.874;6.466;2023-11-21T19:44:17;101121.13;;;6.38;100.00
63115;BME280;49208;50.874;6.466;2023-11-21T19:46:42;101119.38;;;6.35;100.00
63115;BME280;49208;50.874;6.466;2023-11-21T19:49:07;101123.81;;;6.32;100.00
63115;BME280;49208;50.874;6.466;2023-11-21T19:51:35;101120.28;;;6.28;100.00
63115;BME280;49208;50.874;6.466;2023-11-21T19:54:01;101130.00;;;6.29;100.00
63115;BME280;49208;50.874;6.466;2023-11-21T19:56:26;101137.03;;;6.28;100.00
63115;BME280;49208;50.874;6.466;2023-11-21T19:58:51;101137.03;;;6.28;100.00
63115;BME280;49208;50.874;6.466;2023-11-21T20:01:17;101138.81;;;6.26;100.00
63115;BME280;49208;50.874;6.466;2023-11-21T20:03:42;101149.41;;;6.23;100.00
63115;BME280;49208;50.874;6.466;2023-11-21T20:06:09;101146.75;;;6.25;100.00